createdAt,value
2017-12-28T00:02:42.083Z,67.58
2017-12-28T00:09:24.328Z,67.05
2017-12-28T00:11:59.645Z,66.99
2017-12-28T00:18:08.142Z,67.03
2017-12-28T00:20:52.574Z,68.11
2017-12-28T00:23:32.437Z,67.72
2017-12-28T00:26:11.743Z,67.33
2017-12-28T00:29:42.474Z,67.42
2017-12-28T00:32:17.832Z,67.38
2017-12-28T00:35:01.888Z,67.57
2017-12-28T00:37:55.908Z,67.82
2017-12-28T00:40:33.080Z,67.67
2017-12-28T00:43:05.494Z,67.32
2017-12-28T00:50:29.409Z,66.96
2017-12-28T00:53:08.038Z,66.44
2017-12-28T00:55:54.229Z,66.43
2017-12-28T00:58:35.415Z,65.68
2017-12-28T01:03:53.527Z,65.91
2017-12-28T01:06:26.718Z,65.72
2017-12-28T01:09:05.037Z,65.52
2017-12-28T01:11:37.588Z,66.25
2017-12-28T01:18:08.105Z,67.12
2017-12-28T01:28:52.106Z,67.11
2017-12-28T01:42:19.068Z,67.18
2017-12-28T01:56:35.577Z,65.63
2017-12-28T02:03:46.113Z,66.36
2017-12-28T02:06:54.426Z,66.60
2017-12-28T02:10:10.638Z,67.77
2017-12-28T02:35:10.848Z,67.86
2017-12-28T02:37:59.646Z,68.05
2017-12-28T02:40:47.041Z,67.64
2017-12-28T02:44:08.551Z,68.07
2017-12-28T02:46:47.569Z,68.02
2017-12-28T02:53:39.728Z,67.50
2017-12-28T03:11:42.732Z,65.91
2017-12-28T03:18:27.815Z,66.37
2017-12-28T03:55:21.167Z,66.99
2017-12-28T04:05:41.465Z,67.45
2017-12-28T04:11:30.993Z,68.02
2017-12-28T04:14:07.205Z,68.08
2017-12-28T04:21:40.809Z,68.94
2017-12-28T04:24:23.799Z,68.19
2017-12-28T04:27:18.130Z,68.81
2017-12-28T04:34:25.757Z,67.95
2017-12-28T04:49:14.720Z,65.53
2017-12-28T04:55:05.979Z,66.42
2017-12-28T05:12:15.271Z,67.21
2017-12-28T05:18:27.829Z,67.37
2017-12-28T05:21:12.963Z,68.12
2017-12-28T05:23:52.533Z,68.27
2017-12-28T05:26:30.339Z,66.66
2017-12-28T05:36:52.994Z,69.82
2017-12-28T05:39:25.971Z,69.25
2017-12-28T05:41:59.588Z,67.99
2017-12-28T05:44:35.155Z,66.80
2017-12-28T05:47:10.977Z,66.38
2017-12-28T05:49:46.428Z,65.91
2017-12-28T05:52:20.207Z,65.48
2017-12-28T05:54:54.379Z,65.47
2017-12-28T05:57:29.660Z,65.37
2017-12-28T06:00:01.068Z,65.56
2017-12-28T06:02:40.622Z,65.48
2017-12-28T06:05:13.583Z,65.79
2017-12-28T06:23:22.139Z,65.77
2017-12-28T06:26:00.964Z,65.82
2017-12-28T06:28:36.979Z,65.80
2017-12-28T06:31:21.359Z,65.38
2017-12-28T06:34:11.307Z,64.87
2017-12-28T06:37:16.936Z,64.36
2017-12-28T06:39:51.580Z,64.81
2017-12-28T06:42:22.332Z,65.06
2017-12-28T06:45:05.386Z,65.23
2017-12-28T06:47:39.889Z,64.48
2017-12-28T06:50:11.962Z,63.91
2017-12-28T06:52:43.560Z,63.83
2017-12-28T06:55:30.869Z,63.54
2017-12-28T06:58:02.927Z,63.57
2017-12-28T07:00:49.913Z,64.15
2017-12-28T07:03:26.031Z,64.00
2017-12-28T07:05:57.552Z,63.92
2017-12-28T07:08:28.025Z,63.67
2017-12-28T07:10:58.458Z,63.66
2017-12-28T07:13:33.470Z,63.23
2017-12-28T07:16:07.318Z,63.17
2017-12-28T07:18:38.974Z,62.72
2017-12-28T07:21:24.794Z,63.52
2017-12-28T07:26:41.792Z,63.25
2017-12-28T07:29:19.637Z,62.68
2017-12-28T07:32:00.650Z,61.50
2017-12-28T07:34:35.970Z,61.36
2017-12-28T07:37:17.984Z,61.21
2017-12-28T07:40:03.633Z,60.95
2017-12-28T07:42:41.479Z,60.08
2017-12-28T07:45:29.941Z,59.93
2017-12-28T07:48:09.148Z,59.21
2017-12-28T07:50:40.071Z,59.62
2017-12-28T07:53:12.321Z,58.30
2017-12-28T07:55:42.443Z,58.85
2017-12-28T07:58:30.003Z,57.33
2017-12-28T08:01:05.708Z,56.97
2017-12-28T08:03:42.340Z,56.31
2017-12-28T08:06:15.689Z,56.74
2017-12-28T08:08:48.461Z,56.34
2017-12-28T08:11:19.821Z,54.83
2017-12-28T08:14:14.282Z,55.66
2017-12-28T08:16:53.162Z,56.39
2017-12-28T08:19:28.179Z,57.10
2017-12-28T08:21:59.338Z,56.08
2017-12-28T08:24:33.422Z,56.26
2017-12-28T08:27:08.295Z,54.90
2017-12-28T08:29:46.239Z,55.85
2017-12-28T08:32:31.881Z,56.65
2017-12-28T08:35:07.257Z,55.05
2017-12-28T08:37:40.452Z,56.35
2017-12-28T08:40:17.483Z,55.08
2017-12-28T08:42:58.389Z,54.59
2017-12-28T08:46:25.976Z,55.09
2017-12-28T08:54:46.441Z,54.68
2017-12-28T09:00:07.758Z,53.10
2017-12-28T09:02:42.987Z,54.38
2017-12-28T09:05:20.894Z,52.53
2017-12-28T09:07:53.092Z,54.14
2017-12-28T09:10:40.999Z,53.28
2017-12-28T09:13:14.540Z,54.66
2017-12-28T09:15:46.952Z,54.75
2017-12-28T09:18:20.387Z,52.68
2017-12-28T09:20:56.432Z,52.86
2017-12-28T09:23:31.896Z,52.75
2017-12-28T09:28:50.921Z,52.02
2017-12-28T09:31:27.578Z,51.43
2017-12-28T09:33:59.461Z,50.45
2017-12-28T09:36:31.576Z,50.19
2017-12-28T09:39:02.860Z,51.48
2017-12-28T09:41:34.280Z,49.97
2017-12-28T09:44:05.507Z,51.10
2017-12-28T09:46:35.629Z,50.71
2017-12-28T09:49:09.985Z,50.41
2017-12-28T09:51:42.835Z,50.65
2017-12-28T09:54:22.964Z,49.81
2017-12-28T09:56:57.144Z,50.96
2017-12-28T09:59:31.639Z,50.39
2017-12-28T10:02:20.271Z,50.65
2017-12-28T10:04:51.226Z,49.79
2017-12-28T10:07:29.031Z,50.50
2017-12-28T10:10:15.215Z,52.06
2017-12-28T10:12:50.682Z,51.51
2017-12-28T10:15:23.036Z,51.07
2017-12-28T10:17:55.638Z,50.98
2017-12-28T10:20:27.693Z,50.40
2017-12-28T10:22:59.849Z,50.47
2017-12-28T10:25:33.669Z,49.34
2017-12-28T10:28:15.111Z,47.45
2017-12-28T10:30:55.598Z,45.75
2017-12-28T10:33:28.166Z,48.04
2017-12-28T10:36:07.258Z,48.65
2017-12-28T10:38:39.047Z,48.21
2017-12-28T10:41:18.239Z,47.71
2017-12-28T10:43:56.348Z,47.60
2017-12-28T10:46:31.373Z,44.64
2017-12-28T10:49:02.721Z,47.62
2017-12-28T10:51:37.071Z,47.50
2017-12-28T10:54:16.684Z,45.55
2017-12-28T10:56:50.904Z,45.32
2017-12-28T11:02:24.288Z,46.48
2017-12-28T11:05:01.417Z,45.81
2017-12-28T11:07:47.385Z,44.80
2017-12-28T11:10:18.877Z,46.32
2017-12-28T11:12:54.131Z,45.89
2017-12-28T11:18:29.341Z,45.13
2017-12-28T11:21:00.795Z,44.09
2017-12-28T11:23:33.408Z,45.00
2017-12-28T11:26:04.195Z,45.50
2017-12-28T11:28:37.883Z,45.54
2017-12-28T11:31:09.146Z,44.97
2017-12-28T11:36:28.081Z,44.08
2017-12-28T11:41:31.312Z,45.88
2017-12-28T11:44:06.951Z,43.46
2017-12-28T11:46:42.804Z,42.91
2017-12-28T11:49:20.988Z,42.97
2017-12-28T11:51:51.044Z,44.78
2017-12-28T11:54:30.903Z,43.78
2017-12-28T11:57:10.450Z,43.89
2017-12-28T12:00:20.812Z,43.85
2017-12-28T12:03:02.067Z,45.03
2017-12-28T12:05:47.620Z,44.23
2017-12-28T12:08:28.926Z,44.77
2017-12-28T12:11:02.987Z,42.96
2017-12-28T12:13:37.370Z,44.37
2017-12-28T12:16:08.396Z,44.18
2017-12-28T12:18:41.081Z,44.24
2017-12-28T12:21:20.144Z,44.05
2017-12-28T12:23:51.573Z,44.55
2017-12-28T12:26:38.280Z,44.78
2017-12-28T12:29:08.106Z,44.68
2017-12-28T12:31:44.332Z,43.76
2017-12-28T12:34:16.921Z,44.17
2017-12-28T12:36:48.335Z,44.52
2017-12-28T12:39:23.984Z,44.48
2017-12-28T12:42:05.845Z,44.25
2017-12-28T12:44:39.873Z,43.49
2017-12-28T12:47:12.552Z,43.64
2017-12-28T12:49:44.886Z,43.21
2017-12-28T12:52:22.102Z,43.02
2017-12-28T12:54:53.504Z,42.68
2017-12-28T12:57:26.295Z,43.16
2017-12-28T12:59:56.663Z,43.52
2017-12-28T13:02:28.223Z,43.83
2017-12-28T13:05:00.867Z,43.28
2017-12-28T13:07:37.527Z,43.11
2017-12-28T13:10:18.815Z,44.04
2017-12-28T13:12:51.449Z,42.99
2017-12-28T13:15:24.441Z,44.36
2017-12-28T13:17:56.147Z,45.03
2017-12-28T13:20:35.506Z,44.48
2017-12-28T13:23:08.047Z,43.87
2017-12-28T13:25:41.927Z,43.68
2017-12-28T13:28:14.749Z,43.45
2017-12-28T13:30:48.145Z,44.05
2017-12-28T13:33:21.962Z,44.31
2017-12-28T13:35:53.306Z,44.71
2017-12-28T13:38:27.084Z,44.30
2017-12-28T13:40:58.175Z,44.17
2017-12-28T13:43:31.456Z,44.64
2017-12-28T13:46:11.111Z,44.68
2017-12-28T13:48:42.707Z,45.24
2017-12-28T13:51:12.877Z,45.36
2017-12-28T13:53:47.934Z,46.28
2017-12-28T13:56:24.572Z,46.61
2017-12-28T13:59:00.374Z,46.61
2017-12-28T14:01:30.400Z,46.06
2017-12-28T14:04:03.276Z,46.94
2017-12-28T14:06:38.121Z,47.68
2017-12-28T14:09:10.053Z,47.93
2017-12-28T14:11:41.044Z,47.23
2017-12-28T14:14:19.516Z,47.95
2017-12-28T14:16:50.868Z,47.46
2017-12-28T14:19:21.386Z,47.19
2017-12-28T14:21:54.212Z,46.64
2017-12-28T14:24:51.362Z,47.11
2017-12-28T14:27:25.355Z,47.07
2017-12-28T14:29:55.605Z,46.87
2017-12-28T14:32:33.113Z,47.27
2017-12-28T14:35:09.718Z,47.39
2017-12-28T14:37:42.245Z,48.24
2017-12-28T14:42:55.022Z,49.83
2017-12-28T14:45:36.951Z,49.75
2017-12-28T14:48:23.607Z,48.81
2017-12-28T14:50:56.676Z,49.36
2017-12-28T14:53:31.429Z,48.81
2017-12-28T14:56:02.607Z,48.16
2017-12-28T14:58:35.884Z,48.87
2017-12-28T15:01:09.235Z,48.18
2017-12-28T15:03:42.736Z,49.03
2017-12-28T15:06:15.402Z,48.71
2017-12-28T15:08:48.083Z,48.66
2017-12-28T15:11:21.228Z,48.24
2017-12-28T15:13:51.979Z,48.36
2017-12-28T15:16:26.135Z,47.99
2017-12-28T15:21:38.088Z,48.79
2017-12-28T15:24:43.498Z,48.23
2017-12-28T15:27:18.127Z,48.49
2017-12-28T15:29:56.104Z,48.69
2017-12-28T15:32:31.816Z,48.20
2017-12-28T15:37:45.824Z,47.15
2017-12-28T15:40:17.105Z,46.99
2017-12-28T15:42:50.751Z,47.11
2017-12-28T15:45:22.016Z,47.20
2017-12-28T15:47:54.202Z,47.34
2017-12-28T15:50:24.324Z,47.16
2017-12-28T15:53:07.886Z,46.67
2017-12-28T15:55:47.147Z,46.90
2017-12-28T15:58:29.500Z,46.89
2017-12-28T16:01:04.651Z,46.52
2017-12-28T16:03:36.160Z,46.59
2017-12-28T16:06:08.861Z,46.53
2017-12-28T16:08:40.975Z,46.61
2017-12-28T16:11:13.111Z,47.20
2017-12-28T16:13:48.160Z,46.67
2017-12-28T16:16:20.028Z,46.78
2017-12-28T16:21:43.633Z,46.25
2017-12-28T16:24:15.811Z,45.62
2017-12-28T16:26:48.130Z,46.66
2017-12-28T16:29:21.940Z,47.33
2017-12-28T16:31:54.451Z,49.14
2017-12-28T16:34:32.068Z,50.27
2017-12-28T16:37:12.919Z,50.86
2017-12-28T16:39:46.327Z,50.29
2017-12-28T16:42:17.943Z,50.72
2017-12-28T16:44:52.296Z,50.41
2017-12-28T16:47:34.260Z,51.03
2017-12-28T16:50:08.588Z,52.39
2017-12-28T16:52:40.849Z,54.29
2017-12-28T16:55:12.096Z,55.26
2017-12-28T16:57:50.826Z,55.74
2017-12-28T17:00:24.597Z,58.21
2017-12-28T17:03:01.478Z,60.43
2017-12-28T17:05:34.866Z,61.02
2017-12-28T17:08:08.782Z,60.25
2017-12-28T17:10:39.936Z,60.87
2017-12-28T17:13:12.010Z,61.67
2017-12-28T17:15:42.165Z,62.25
2017-12-28T17:18:15.462Z,60.64
2017-12-28T17:23:29.432Z,60.70
2017-12-28T17:26:18.234Z,60.77
2017-12-28T17:29:25.959Z,62.73
2017-12-28T17:32:00.188Z,62.36
2017-12-28T17:34:31.662Z,61.56
2017-12-28T17:37:02.748Z,60.55
2017-12-28T17:39:36.802Z,60.28
2017-12-28T17:42:07.825Z,60.64
2017-12-28T17:44:38.676Z,62.61
2017-12-28T17:47:09.525Z,62.22
2017-12-28T17:49:42.176Z,62.02
2017-12-28T17:52:14.315Z,62.19
2017-12-28T17:54:47.572Z,62.39
2017-12-28T17:57:18.313Z,61.43
2017-12-28T17:59:49.757Z,61.86
2017-12-28T18:02:27.583Z,62.34
2017-12-28T18:05:00.856Z,62.05
2017-12-28T18:07:33.368Z,60.58
2017-12-28T18:10:04.675Z,60.80
2017-12-28T18:12:36.145Z,60.69
2017-12-28T18:15:06.996Z,60.42
2017-12-28T18:17:40.353Z,60.86
2017-12-28T18:20:13.346Z,62.28
2017-12-28T18:22:45.644Z,62.54
2017-12-28T18:25:22.254Z,62.81
2017-12-28T18:27:54.641Z,62.50
2017-12-28T18:30:35.950Z,61.61
2017-12-28T18:33:07.975Z,62.08
2017-12-28T18:35:41.146Z,61.27
2017-12-28T18:38:12.013Z,61.52
2017-12-28T18:40:45.500Z,62.97
2017-12-28T18:43:16.028Z,63.75
2017-12-28T18:45:52.474Z,62.28
2017-12-28T18:48:31.282Z,62.46
2017-12-28T18:51:09.610Z,62.51
2017-12-28T18:53:45.754Z,62.72
2017-12-28T18:56:17.816Z,62.85
2017-12-28T19:01:28.132Z,63.66
2017-12-28T19:04:04.749Z,64.39
2017-12-28T19:06:35.730Z,64.08
2017-12-28T19:09:19.897Z,65.04
2017-12-28T19:12:00.182Z,65.98
2017-12-28T19:14:42.020Z,66.10
2017-12-28T19:17:18.890Z,64.09
2017-12-28T19:19:52.008Z,63.56
2017-12-28T19:22:22.624Z,63.00
2017-12-28T19:24:58.882Z,63.40
2017-12-28T19:27:30.272Z,64.04
2017-12-28T19:32:47.396Z,62.84
2017-12-28T19:35:17.930Z,63.74
2017-12-28T19:37:51.591Z,64.52
2017-12-28T19:40:24.421Z,65.30
2017-12-28T19:43:00.834Z,65.19
2017-12-28T19:45:32.173Z,64.50
2017-12-28T19:48:05.159Z,64.91
2017-12-28T19:50:41.942Z,65.72
2017-12-28T19:53:13.253Z,65.99
2017-12-28T19:55:47.236Z,64.99
2017-12-28T19:58:24.769Z,66.15
2017-12-28T20:01:00.779Z,66.29
2017-12-28T20:03:31.960Z,66.02
2017-12-28T20:06:17.542Z,66.02
2017-12-28T20:08:48.748Z,66.01
2017-12-28T20:11:22.962Z,66.24
2017-12-28T20:14:01.340Z,66.67
2017-12-28T20:16:52.964Z,66.61
2017-12-28T20:19:32.731Z,66.65
2017-12-28T20:22:07.775Z,67.36
2017-12-28T20:27:22.105Z,65.50
2017-12-28T20:30:08.188Z,66.18
2017-12-28T20:32:40.980Z,64.95
2017-12-28T20:35:22.609Z,65.40
2017-12-28T20:37:57.788Z,66.30
2017-12-28T20:40:35.456Z,66.20
2017-12-28T20:43:16.230Z,65.77
2017-12-28T20:45:50.884Z,65.72
2017-12-28T20:48:31.749Z,65.76
2017-12-28T20:51:08.969Z,67.41
2017-12-28T20:53:42.957Z,68.96
2017-12-28T20:56:20.311Z,68.20
2017-12-28T20:58:56.919Z,66.90
2017-12-28T21:01:32.840Z,65.13
2017-12-28T21:04:05.705Z,64.54
2017-12-28T21:06:38.349Z,65.80
2017-12-28T21:09:12.097Z,65.22
2017-12-28T21:11:45.747Z,66.18
2017-12-28T21:14:30.800Z,65.65
2017-12-28T21:17:03.007Z,63.58
2017-12-28T21:19:39.929Z,63.17
2017-12-28T21:22:15.657Z,63.75
2017-12-28T21:24:46.906Z,62.95
2017-12-28T21:27:24.517Z,64.41
2017-12-28T21:30:04.877Z,64.17
2017-12-28T21:32:40.756Z,64.33
2017-12-28T21:35:16.240Z,61.63
2017-12-28T21:37:47.252Z,64.41
2017-12-28T21:40:32.639Z,62.68
2017-12-28T21:43:08.608Z,62.84
2017-12-28T21:45:41.367Z,62.47
2017-12-28T21:48:25.216Z,62.51
2017-12-28T21:50:59.587Z,64.16
2017-12-28T21:53:34.150Z,63.00
2017-12-28T21:56:07.131Z,59.61
2017-12-28T21:58:49.507Z,58.99
2017-12-28T22:01:23.367Z,58.81
2017-12-28T22:03:54.442Z,58.27
2017-12-28T22:06:31.199Z,57.64
2017-12-28T22:09:03.486Z,57.94
2017-12-28T22:11:34.539Z,58.15
2017-12-28T22:16:52.246Z,59.55
2017-12-28T22:19:24.349Z,59.39
2017-12-28T22:21:54.738Z,59.57
2017-12-28T22:24:27.284Z,60.33
2017-12-28T22:26:59.054Z,59.95
2017-12-28T22:29:54.165Z,61.05
2017-12-28T22:32:36.046Z,62.00
2017-12-28T22:35:15.205Z,60.98
2017-12-28T22:37:50.836Z,61.01
2017-12-28T22:40:42.064Z,61.07
2017-12-28T22:43:16.848Z,61.52
2017-12-28T22:45:47.804Z,62.43
2017-12-28T22:48:20.844Z,61.29
2017-12-28T22:50:57.254Z,61.37
2017-12-28T22:53:32.839Z,60.47
2017-12-28T22:56:03.359Z,60.54
2017-12-28T22:59:09.274Z,59.08
2017-12-28T23:01:47.252Z,59.82
2017-12-28T23:08:42.164Z,56.62
2017-12-28T23:11:52.063Z,54.44
2017-12-28T23:18:23.091Z,57.02
2017-12-28T23:26:12.954Z,52.79
2017-12-28T23:29:05.201Z,53.45
2017-12-28T23:35:58.711Z,51.92
2017-12-28T23:43:09.483Z,48.80
2017-12-28T23:49:45.914Z,44.48
2017-12-28T23:52:21.534Z,44.94
